sensor_id;sensor_type;location;lat;lon;timestamp;P1;durP1;ratioP1;P2;durP2;ratioP2
68825;SDS011;55841;53.392;10.086;2023-02-10T00:00:48;41.47;;;13.23;;
68825;SDS011;55841;53.392;10.086;2023-02-10T00:03:13;40.30;;;13.95;;
68825;SDS011;55841;53.392;10.086;2023-02-10T00:05:39;32.00;;;13.07;;
68825;SDS011;55841;53.392;10.086;2023-02-10T00:08:04;41.97;;;15.20;;
68825;SDS011;55841;53.392;10.086;2023-02-10T00:10:30;44.67;;;15.23;;
68825;SDS011;55841;53.392;10.086;2023-02-10T00:12:55;37.55;;;14.32;;
68825;SDS011;55841;53.392;10.086;2023-02-10T00:15:21;39.08;;;13.70;;
68825;SDS011;55841;53.392;10.086;2023-02-10T00:17:46;32.42;;;12.52;;
68825;SDS011;55841;53.392;10.086;2023-02-10T00:20:12;38.10;;;14.48;;
68825;SDS011;55841;53.392;10.086;2023-02-10T00:22:37;35.42;;;13.82;;
68825;SDS011;55841;53.392;10.086;2023-02-10T00:25:03;34.50;;;13.52;;
68825;SDS011;55841;53.392;10.086;2023-02-10T00:27:29;35.42;;;14.02;;
68825;SDS011;55841;53.392;10.086;2023-02-10T00:29:54;38.28;;;14.68;;
68825;SDS011;55841;53.392;10.086;2023-02-10T00:32:20;34.15;;;13.55;;
68825;SDS011;55841;53.392;10.086;2023-02-10T00:34:45;37.00;;;14.10;;
68825;SDS011;55841;53.392;10.086;2023-02-10T00:37:11;36.97;;;14.63;;
68825;SDS011;55841;53.392;10.086;2023-02-10T00:39:36;38.17;;;14.88;;
68825;SDS011;55841;53.392;10.086;2023-02-10T00:42:02;39.80;;;14.68;;
68825;SDS011;55841;53.392;10.086;2023-02-10T00:44:28;37.25;;;14.27;;
68825;SDS011;55841;53.392;10.086;2023-02-10T00:46:53;36.80;;;13.95;;
68825;SDS011;55841;53.392;10.086;2023-02-10T00:49:19;34.33;;;13.60;;
68825;SDS011;55841;53.392;10.086;2023-02-10T00:51:44;39.92;;;15.13;;
68825;SDS011;55841;53.392;10.086;2023-02-10T00:54:10;35.55;;;13.07;;
68825;SDS011;55841;53.392;10.086;2023-02-10T00:56:36;32.45;;;12.30;;
68825;SDS011;55841;53.392;10.086;2023-02-10T00:59:02;35.38;;;13.82;;
68825;SDS011;55841;53.392;10.086;2023-02-10T01:01:27;40.45;;;13.73;;
68825;SDS011;55841;53.392;10.086;2023-02-10T01:03:53;41.28;;;15.10;;
68825;SDS011;55841;53.392;10.086;2023-02-10T01:06:18;35.75;;;13.25;;
68825;SDS011;55841;53.392;10.086;2023-02-10T01:08:44;34.33;;;13.55;;
68825;SDS011;55841;53.392;10.086;2023-02-10T01:11:10;35.38;;;12.90;;
68825;SDS011;55841;53.392;10.086;2023-02-10T01:13:37;33.13;;;13.32;;
68825;SDS011;55841;53.392;10.086;2023-02-10T01:16:04;38.50;;;13.15;;
68825;SDS011;55841;53.392;10.086;2023-02-10T01:18:34;30.98;;;12.73;;
68825;SDS011;55841;53.392;10.086;2023-02-10T01:21:05;30.85;;;12.23;;
68825;SDS011;55841;53.392;10.086;2023-02-10T01:23:31;29.95;;;12.85;;
68825;SDS011;55841;53.392;10.086;2023-02-10T01:25:58;28.58;;;12.82;;
68825;SDS011;55841;53.392;10.086;2023-02-10T01:28:24;33.58;;;12.32;;
68825;SDS011;55841;53.392;10.086;2023-02-10T01:30:49;37.42;;;13.10;;
68825;SDS011;55841;53.392;10.086;2023-02-10T01:33:15;35.25;;;11.40;;
68825;SDS011;55841;53.392;10.086;2023-02-10T01:35:40;32.00;;;12.23;;
68825;SDS011;55841;53.392;10.086;2023-02-10T01:38:06;33.08;;;11.20;;
68825;SDS011;55841;53.392;10.086;2023-02-10T01:40:31;30.83;;;10.77;;
68825;SDS011;55841;53.392;10.086;2023-02-10T01:42:57;24.02;;;9.80;;
68825;SDS011;55841;53.392;10.086;2023-02-10T01:45:31;41.28;;;12.82;;
68825;SDS011;55841;53.392;10.086;2023-02-10T01:47:58;33.28;;;11.93;;
68825;SDS011;55841;53.392;10.086;2023-02-10T01:50:36;35.78;;;13.07;;
68825;SDS011;55841;53.392;10.086;2023-02-10T01:53:05;30.75;;;11.52;;
68825;SDS011;55841;53.392;10.086;2023-02-10T01:55:32;34.40;;;12.50;;
68825;SDS011;55841;53.392;10.086;2023-02-10T01:57:59;36.50;;;12.27;;
68825;SDS011;55841;53.392;10.086;2023-02-10T02:00:27;29.40;;;12.02;;
68825;SDS011;55841;53.392;10.086;2023-02-10T02:02:52;28.85;;;11.82;;
68825;SDS011;55841;53.392;10.086;2023-02-10T02:05:20;30.92;;;11.50;;
68825;SDS011;55841;53.392;10.086;2023-02-10T02:07:54;33.97;;;12.52;;
68825;SDS011;55841;53.392;10.086;2023-02-10T02:10:20;30.83;;;11.00;;
68825;SDS011;55841;53.392;10.086;2023-02-10T02:18:02;30.95;;;9.98;;
68825;SDS011;55841;53.392;10.086;2023-02-10T02:28:15;31.90;;;10.75;;
68825;SDS011;55841;53.392;10.086;2023-02-10T02:33:52;31.30;;;10.70;;
68825;SDS011;55841;53.392;10.086;2023-02-10T02:36:24;30.13;;;10.73;;
68825;SDS011;55841;53.392;10.086;2023-02-10T02:39:00;28.95;;;10.60;;
68825;SDS011;55841;53.392;10.086;2023-02-10T02:41:28;28.40;;;11.00;;
68825;SDS011;55841;53.392;10.086;2023-02-10T02:43:54;27.17;;;10.10;;
68825;SDS011;55841;53.392;10.086;2023-02-10T02:52:04;34.58;;;11.48;;
68825;SDS011;55841;53.392;10.086;2023-02-10T02:54:40;29.58;;;10.77;;
68825;SDS011;55841;53.392;10.086;2023-02-10T03:00:05;23.50;;;7.95;;
68825;SDS011;55841;53.392;10.086;2023-02-10T03:02:37;30.67;;;11.13;;
68825;SDS011;55841;53.392;10.086;2023-02-10T03:05:04;31.15;;;9.85;;
68825;SDS011;55841;53.392;10.086;2023-02-10T03:07:30;30.35;;;11.57;;
68825;SDS011;55841;53.392;10.086;2023-02-10T03:09:55;33.60;;;11.55;;
68825;SDS011;55841;53.392;10.086;2023-02-10T03:12:21;30.90;;;11.32;;
68825;SDS011;55841;53.392;10.086;2023-02-10T03:14:46;29.05;;;11.25;;
68825;SDS011;55841;53.392;10.086;2023-02-10T03:17:12;30.17;;;12.30;;
68825;SDS011;55841;53.392;10.086;2023-02-10T03:19:37;31.67;;;11.38;;
68825;SDS011;55841;53.392;10.086;2023-02-10T03:22:04;34.85;;;11.55;;
68825;SDS011;55841;53.392;10.086;2023-02-10T03:24:29;30.98;;;12.35;;
68825;SDS011;55841;53.392;10.086;2023-02-10T03:26:55;38.13;;;12.90;;
68825;SDS011;55841;53.392;10.086;2023-02-10T03:29:20;33.80;;;12.35;;
68825;SDS011;55841;53.392;10.086;2023-02-10T03:31:46;33.85;;;12.75;;
68825;SDS011;55841;53.392;10.086;2023-02-10T03:34:11;32.35;;;13.73;;
68825;SDS011;55841;53.392;10.086;2023-02-10T03:36:36;37.83;;;12.95;;
68825;SDS011;55841;53.392;10.086;2023-02-10T03:39:02;37.67;;;13.43;;
68825;SDS011;55841;53.392;10.086;2023-02-10T03:41:29;32.50;;;12.68;;
68825;SDS011;55841;53.392;10.086;2023-02-10T03:43:54;39.95;;;13.32;;
68825;SDS011;55841;53.392;10.086;2023-02-10T03:46:20;38.15;;;15.23;;
68825;SDS011;55841;53.392;10.086;2023-02-10T03:48:45;42.65;;;15.68;;
68825;SDS011;55841;53.392;10.086;2023-02-10T03:51:11;35.63;;;13.57;;
68825;SDS011;55841;53.392;10.086;2023-02-10T03:53:37;33.90;;;13.52;;
68825;SDS011;55841;53.392;10.086;2023-02-10T03:56:02;40.53;;;14.98;;
68825;SDS011;55841;53.392;10.086;2023-02-10T03:58:28;36.17;;;14.27;;
68825;SDS011;55841;53.392;10.086;2023-02-10T04:00:54;34.92;;;14.48;;
68825;SDS011;55841;53.392;10.086;2023-02-10T04:03:19;36.17;;;13.82;;
68825;SDS011;55841;53.392;10.086;2023-02-10T04:05:45;37.13;;;15.00;;
68825;SDS011;55841;53.392;10.086;2023-02-10T04:08:11;33.40;;;15.07;;
68825;SDS011;55841;53.392;10.086;2023-02-10T04:10:36;34.30;;;13.55;;
68825;SDS011;55841;53.392;10.086;2023-02-10T04:13:02;35.53;;;14.70;;
68825;SDS011;55841;53.392;10.086;2023-02-10T04:15:28;35.33;;;13.45;;
68825;SDS011;55841;53.392;10.086;2023-02-10T04:17:53;36.05;;;15.15;;
68825;SDS011;55841;53.392;10.086;2023-02-10T04:20:19;33.75;;;14.52;;
68825;SDS011;55841;53.392;10.086;2023-02-10T04:22:44;35.05;;;13.70;;
68825;SDS011;55841;53.392;10.086;2023-02-10T04:25:10;37.78;;;15.20;;
68825;SDS011;55841;53.392;10.086;2023-02-10T04:27:35;32.95;;;12.32;;
68825;SDS011;55841;53.392;10.086;2023-02-10T04:30:01;41.75;;;15.40;;
68825;SDS011;55841;53.392;10.086;2023-02-10T04:32:27;39.50;;;15.15;;
68825;SDS011;55841;53.392;10.086;2023-02-10T04:34:52;36.15;;;14.30;;
68825;SDS011;55841;53.392;10.086;2023-02-10T04:37:18;39.35;;;14.07;;
68825;SDS011;55841;53.392;10.086;2023-02-10T04:39:44;42.05;;;14.18;;
68825;SDS011;55841;53.392;10.086;2023-02-10T04:42:09;42.05;;;14.77;;
68825;SDS011;55841;53.392;10.086;2023-02-10T04:44:35;40.83;;;14.65;;
68825;SDS011;55841;53.392;10.086;2023-02-10T04:47:01;39.97;;;13.68;;
68825;SDS011;55841;53.392;10.086;2023-02-10T04:49:26;43.42;;;14.02;;
68825;SDS011;55841;53.392;10.086;2023-02-10T04:51:52;40.50;;;15.45;;
68825;SDS011;55841;53.392;10.086;2023-02-10T04:54:18;37.75;;;14.85;;
68825;SDS011;55841;53.392;10.086;2023-02-10T04:56:44;37.40;;;15.05;;
68825;SDS011;55841;53.392;10.086;2023-02-10T04:59:09;38.15;;;12.80;;
68825;SDS011;55841;53.392;10.086;2023-02-10T05:01:35;37.42;;;14.60;;
68825;SDS011;55841;53.392;10.086;2023-02-10T05:04:00;47.92;;;14.07;;
68825;SDS011;55841;53.392;10.086;2023-02-10T05:06:26;36.13;;;15.25;;
68825;SDS011;55841;53.392;10.086;2023-02-10T05:08:51;37.55;;;13.50;;
68825;SDS011;55841;53.392;10.086;2023-02-10T05:11:17;30.08;;;10.98;;
68825;SDS011;55841;53.392;10.086;2023-02-10T05:13:43;39.05;;;12.40;;
68825;SDS011;55841;53.392;10.086;2023-02-10T05:16:10;35.40;;;14.07;;
68825;SDS011;55841;53.392;10.086;2023-02-10T05:18:36;39.88;;;13.98;;
68825;SDS011;55841;53.392;10.086;2023-02-10T05:21:02;40.05;;;15.10;;
68825;SDS011;55841;53.392;10.086;2023-02-10T05:23:28;31.85;;;12.90;;
68825;SDS011;55841;53.392;10.086;2023-02-10T05:25:54;34.63;;;13.68;;
68825;SDS011;55841;53.392;10.086;2023-02-10T05:28:20;41.83;;;14.73;;
68825;SDS011;55841;53.392;10.086;2023-02-10T05:30:46;40.47;;;15.02;;
68825;SDS011;55841;53.392;10.086;2023-02-10T05:33:12;32.97;;;12.35;;
68825;SDS011;55841;53.392;10.086;2023-02-10T05:35:38;41.63;;;14.85;;
68825;SDS011;55841;53.392;10.086;2023-02-10T05:38:03;35.13;;;13.43;;
68825;SDS011;55841;53.392;10.086;2023-02-10T05:40:29;38.40;;;14.80;;
68825;SDS011;55841;53.392;10.086;2023-02-10T05:42:54;38.30;;;14.10;;
68825;SDS011;55841;53.392;10.086;2023-02-10T05:45:20;39.88;;;16.40;;
68825;SDS011;55841;53.392;10.086;2023-02-10T05:47:46;30.42;;;10.65;;
68825;SDS011;55841;53.392;10.086;2023-02-10T05:50:12;38.88;;;13.77;;
68825;SDS011;55841;53.392;10.086;2023-02-10T05:52:38;41.33;;;14.43;;
68825;SDS011;55841;53.392;10.086;2023-02-10T05:55:04;36.20;;;13.88;;
68825;SDS011;55841;53.392;10.086;2023-02-10T05:57:30;41.35;;;15.10;;
68825;SDS011;55841;53.392;10.086;2023-02-10T05:59:56;36.58;;;14.80;;
68825;SDS011;55841;53.392;10.086;2023-02-10T06:02:21;37.90;;;13.40;;
68825;SDS011;55841;53.392;10.086;2023-02-10T06:04:47;40.63;;;15.85;;
68825;SDS011;55841;53.392;10.086;2023-02-10T06:07:14;27.60;;;10.50;;
68825;SDS011;55841;53.392;10.086;2023-02-10T06:10:11;43.65;;;16.05;;
68825;SDS011;55841;53.392;10.086;2023-02-10T06:12:39;32.05;;;13.30;;
68825;SDS011;55841;53.392;10.086;2023-02-10T06:15:05;35.00;;;14.20;;
68825;SDS011;55841;53.392;10.086;2023-02-10T06:17:31;43.53;;;17.23;;
68825;SDS011;55841;53.392;10.086;2023-02-10T06:19:56;41.92;;;15.23;;
68825;SDS011;55841;53.392;10.086;2023-02-10T06:22:22;44.83;;;15.43;;
68825;SDS011;55841;53.392;10.086;2023-02-10T06:24:47;35.50;;;13.77;;
68825;SDS011;55841;53.392;10.086;2023-02-10T06:27:13;39.50;;;15.18;;
68825;SDS011;55841;53.392;10.086;2023-02-10T06:29:38;37.78;;;14.35;;
68825;SDS011;55841;53.392;10.086;2023-02-10T06:32:03;34.90;;;11.77;;
68825;SDS011;55841;53.392;10.086;2023-02-10T06:34:29;40.78;;;14.70;;
68825;SDS011;55841;53.392;10.086;2023-02-10T06:36:54;34.63;;;12.20;;
68825;SDS011;55841;53.392;10.086;2023-02-10T06:39:20;40.50;;;14.18;;
68825;SDS011;55841;53.392;10.086;2023-02-10T06:41:45;36.25;;;14.98;;
68825;SDS011;55841;53.392;10.086;2023-02-10T06:44:11;46.75;;;15.88;;
68825;SDS011;55841;53.392;10.086;2023-02-10T06:46:36;37.53;;;13.98;;
68825;SDS011;55841;53.392;10.086;2023-02-10T06:49:02;44.35;;;16.10;;
68825;SDS011;55841;53.392;10.086;2023-02-10T06:51:27;41.55;;;16.05;;
68825;SDS011;55841;53.392;10.086;2023-02-10T06:53:53;32.67;;;14.35;;
68825;SDS011;55841;53.392;10.086;2023-02-10T06:56:18;39.53;;;15.68;;
68825;SDS011;55841;53.392;10.086;2023-02-10T06:58:44;40.08;;;15.98;;
68825;SDS011;55841;53.392;10.086;2023-02-10T07:01:10;42.67;;;14.00;;
68825;SDS011;55841;53.392;10.086;2023-02-10T07:03:38;42.72;;;15.07;;
68825;SDS011;55841;53.392;10.086;2023-02-10T07:06:03;40.50;;;15.98;;
68825;SDS011;55841;53.392;10.086;2023-02-10T07:08:29;46.42;;;16.33;;
68825;SDS011;55841;53.392;10.086;2023-02-10T07:10:55;40.95;;;14.50;;
68825;SDS011;55841;53.392;10.086;2023-02-10T07:13:21;26.75;;;11.25;;
68825;SDS011;55841;53.392;10.086;2023-02-10T07:15:46;47.22;;;16.50;;
68825;SDS011;55841;53.392;10.086;2023-02-10T07:18:12;42.13;;;16.30;;
68825;SDS011;55841;53.392;10.086;2023-02-10T07:20:37;39.20;;;14.52;;
68825;SDS011;55841;53.392;10.086;2023-02-10T07:23:03;42.47;;;14.18;;
68825;SDS011;55841;53.392;10.086;2023-02-10T07:25:28;49.67;;;16.65;;
68825;SDS011;55841;53.392;10.086;2023-02-10T07:27:54;50.25;;;17.15;;
68825;SDS011;55841;53.392;10.086;2023-02-10T07:30:19;48.95;;;17.83;;
68825;SDS011;55841;53.392;10.086;2023-02-10T07:32:45;50.22;;;17.92;;
68825;SDS011;55841;53.392;10.086;2023-02-10T07:35:11;44.63;;;15.27;;
68825;SDS011;55841;53.392;10.086;2023-02-10T07:37:37;44.90;;;16.60;;
68825;SDS011;55841;53.392;10.086;2023-02-10T07:40:03;45.30;;;16.73;;
68825;SDS011;55841;53.392;10.086;2023-02-10T07:42:29;43.10;;;15.93;;
68825;SDS011;55841;53.392;10.086;2023-02-10T07:44:55;45.35;;;16.88;;
68825;SDS011;55841;53.392;10.086;2023-02-10T07:47:20;47.03;;;16.73;;
68825;SDS011;55841;53.392;10.086;2023-02-10T07:49:46;36.03;;;14.55;;
68825;SDS011;55841;53.392;10.086;2023-02-10T07:52:11;46.50;;;17.33;;
68825;SDS011;55841;53.392;10.086;2023-02-10T07:54:37;45.20;;;16.85;;
68825;SDS011;55841;53.392;10.086;2023-02-10T07:57:02;42.03;;;17.92;;
68825;SDS011;55841;53.392;10.086;2023-02-10T07:59:28;43.38;;;16.60;;
68825;SDS011;55841;53.392;10.086;2023-02-10T08:01:53;48.42;;;18.02;;
68825;SDS011;55841;53.392;10.086;2023-02-10T08:04:18;44.70;;;17.33;;
68825;SDS011;55841;53.392;10.086;2023-02-10T08:06:44;43.30;;;16.33;;
68825;SDS011;55841;53.392;10.086;2023-02-10T08:09:09;50.47;;;17.48;;
68825;SDS011;55841;53.392;10.086;2023-02-10T08:11:35;45.30;;;18.15;;
68825;SDS011;55841;53.392;10.086;2023-02-10T08:14:01;47.17;;;19.15;;
68825;SDS011;55841;53.392;10.086;2023-02-10T08:16:27;47.20;;;17.17;;
68825;SDS011;55841;53.392;10.086;2023-02-10T08:18:53;44.65;;;18.13;;
68825;SDS011;55841;53.392;10.086;2023-02-10T08:21:18;39.17;;;16.50;;
68825;SDS011;55841;53.392;10.086;2023-02-10T08:23:44;43.30;;;17.38;;
68825;SDS011;55841;53.392;10.086;2023-02-10T08:26:10;43.55;;;17.60;;
68825;SDS011;55841;53.392;10.086;2023-02-10T08:28:37;45.53;;;16.75;;
68825;SDS011;55841;53.392;10.086;2023-02-10T08:31:04;42.05;;;14.93;;
68825;SDS011;55841;53.392;10.086;2023-02-10T08:33:35;47.60;;;18.23;;
68825;SDS011;55841;53.392;10.086;2023-02-10T08:36:05;41.67;;;15.13;;
68825;SDS011;55841;53.392;10.086;2023-02-10T08:38:32;43.38;;;16.83;;
68825;SDS011;55841;53.392;10.086;2023-02-10T08:40:58;41.08;;;14.30;;
68825;SDS011;55841;53.392;10.086;2023-02-10T08:43:24;39.40;;;14.88;;
68825;SDS011;55841;53.392;10.086;2023-02-10T08:45:50;43.38;;;17.55;;
68825;SDS011;55841;53.392;10.086;2023-02-10T08:48:16;39.10;;;15.20;;
68825;SDS011;55841;53.392;10.086;2023-02-10T08:50:42;42.05;;;16.02;;
68825;SDS011;55841;53.392;10.086;2023-02-10T08:53:08;43.72;;;16.15;;
68825;SDS011;55841;53.392;10.086;2023-02-10T08:55:34;37.97;;;16.15;;
68825;SDS011;55841;53.392;10.086;2023-02-10T08:57:59;44.30;;;17.45;;
68825;SDS011;55841;53.392;10.086;2023-02-10T09:00:25;44.35;;;16.75;;
68825;SDS011;55841;53.392;10.086;2023-02-10T09:02:50;47.17;;;17.27;;
68825;SDS011;55841;53.392;10.086;2023-02-10T09:05:16;39.22;;;16.38;;
68825;SDS011;55841;53.392;10.086;2023-02-10T09:07:41;39.65;;;16.58;;
68825;SDS011;55841;53.392;10.086;2023-02-10T09:10:09;46.33;;;16.40;;
68825;SDS011;55841;53.392;10.086;2023-02-10T09:12:34;44.00;;;17.73;;
68825;SDS011;55841;53.392;10.086;2023-02-10T09:15:00;52.67;;;18.33;;
68825;SDS011;55841;53.392;10.086;2023-02-10T09:17:25;40.75;;;17.80;;
68825;SDS011;55841;53.392;10.086;2023-02-10T09:19:51;39.38;;;15.90;;
68825;SDS011;55841;53.392;10.086;2023-02-10T09:22:16;47.58;;;17.90;;
68825;SDS011;55841;53.392;10.086;2023-02-10T09:24:42;50.78;;;17.52;;
68825;SDS011;55841;53.392;10.086;2023-02-10T09:27:07;44.15;;;15.95;;
68825;SDS011;55841;53.392;10.086;2023-02-10T09:29:33;46.72;;;17.67;;
68825;SDS011;55841;53.392;10.086;2023-02-10T09:31:58;40.65;;;16.23;;
68825;SDS011;55841;53.392;10.086;2023-02-10T09:34:24;39.40;;;15.48;;
68825;SDS011;55841;53.392;10.086;2023-02-10T09:36:49;39.40;;;15.73;;
68825;SDS011;55841;53.392;10.086;2023-02-10T09:39:15;41.03;;;15.00;;
68825;SDS011;55841;53.392;10.086;2023-02-10T09:41:45;46.75;;;16.60;;
68825;SDS011;55841;53.392;10.086;2023-02-10T09:52:50;44.03;;;16.67;;
68825;SDS011;55841;53.392;10.086;2023-02-10T09:55:27;42.78;;;16.85;;
68825;SDS011;55841;53.392;10.086;2023-02-10T09:58:10;45.20;;;16.33;;
68825;SDS011;55841;53.392;10.086;2023-02-10T10:06:54;41.47;;;15.82;;
68825;SDS011;55841;53.392;10.086;2023-02-10T10:09:30;37.85;;;16.48;;
68825;SDS011;55841;53.392;10.086;2023-02-10T10:11:59;41.47;;;16.30;;
68825;SDS011;55841;53.392;10.086;2023-02-10T10:14:26;42.22;;;17.23;;
68825;SDS011;55841;53.392;10.086;2023-02-10T10:19:44;41.17;;;14.27;;
68825;SDS011;55841;53.392;10.086;2023-02-10T10:25:14;41.10;;;16.38;;
68825;SDS011;55841;53.392;10.086;2023-02-10T10:28:07;37.85;;;14.57;;
68825;SDS011;55841;53.392;10.086;2023-02-10T10:36:34;39.53;;;15.07;;
68825;SDS011;55841;53.392;10.086;2023-02-10T10:39:11;40.28;;;15.50;;
68825;SDS011;55841;53.392;10.086;2023-02-10T10:41:51;37.85;;;15.45;;
68825;SDS011;55841;53.392;10.086;2023-02-10T10:44:17;37.78;;;15.30;;
68825;SDS011;55841;53.392;10.086;2023-02-10T10:46:47;39.95;;;16.23;;
68825;SDS011;55841;53.392;10.086;2023-02-10T10:49:17;32.97;;;12.00;;
68825;SDS011;55841;53.392;10.086;2023-02-10T10:51:43;37.85;;;15.27;;
68825;SDS011;55841;53.392;10.086;2023-02-10T10:54:13;36.78;;;13.50;;
68825;SDS011;55841;53.392;10.086;2023-02-10T10:56:45;30.67;;;13.35;;
68825;SDS011;55841;53.392;10.086;2023-02-10T10:59:16;31.35;;;14.98;;
68825;SDS011;55841;53.392;10.086;2023-02-10T11:01:47;35.10;;;14.52;;
68825;SDS011;55841;53.392;10.086;2023-02-10T11:04:14;31.67;;;12.40;;
68825;SDS011;55841;53.392;10.086;2023-02-10T11:06:42;29.83;;;12.75;;
68825;SDS011;55841;53.392;10.086;2023-02-10T11:12:00;29.15;;;12.23;;
68825;SDS011;55841;53.392;10.086;2023-02-10T11:14:36;31.52;;;12.85;;
68825;SDS011;55841;53.392;10.086;2023-02-10T11:17:17;31.23;;;12.02;;
68825;SDS011;55841;53.392;10.086;2023-02-10T11:19:58;22.70;;;11.23;;
68825;SDS011;55841;53.392;10.086;2023-02-10T11:22:36;28.15;;;11.52;;
68825;SDS011;55841;53.392;10.086;2023-02-10T11:25:17;22.98;;;10.95;;
68825;SDS011;55841;53.392;10.086;2023-02-10T11:27:54;22.83;;;10.20;;
68825;SDS011;55841;53.392;10.086;2023-02-10T11:30:35;23.15;;;7.97;;
68825;SDS011;55841;53.392;10.086;2023-02-10T11:33:02;23.50;;;9.38;;
68825;SDS011;55841;53.392;10.086;2023-02-10T11:35:29;21.63;;;8.57;;
68825;SDS011;55841;53.392;10.086;2023-02-10T11:38:00;23.55;;;9.35;;
68825;SDS011;55841;53.392;10.086;2023-02-10T11:40:30;25.85;;;8.90;;
68825;SDS011;55841;53.392;10.086;2023-02-10T11:43:12;25.33;;;9.07;;
68825;SDS011;55841;53.392;10.086;2023-02-10T11:45:50;17.13;;;8.05;;
68825;SDS011;55841;53.392;10.086;2023-02-10T11:48:21;22.45;;;8.23;;
68825;SDS011;55841;53.392;10.086;2023-02-10T11:50:48;21.02;;;8.07;;
68825;SDS011;55841;53.392;10.086;2023-02-10T11:53:37;22.58;;;8.07;;
68825;SDS011;55841;53.392;10.086;2023-02-10T11:56:06;19.00;;;7.72;;
68825;SDS011;55841;53.392;10.086;2023-02-10T12:01:24;19.60;;;7.85;;
68825;SDS011;55841;53.392;10.086;2023-02-10T12:07:02;21.58;;;7.97;;
68825;SDS011;55841;53.392;10.086;2023-02-10T12:09:59;18.08;;;7.53;;
68825;SDS011;55841;53.392;10.086;2023-02-10T12:12:42;20.73;;;7.57;;
68825;SDS011;55841;53.392;10.086;2023-02-10T12:15:35;17.88;;;7.13;;
68825;SDS011;55841;53.392;10.086;2023-02-10T12:21:18;18.60;;;6.75;;
68825;SDS011;55841;53.392;10.086;2023-02-10T12:24:14;22.23;;;6.82;;
68825;SDS011;55841;53.392;10.086;2023-02-10T12:32:18;21.88;;;7.43;;
68825;SDS011;55841;53.392;10.086;2023-02-10T12:46:10;19.45;;;6.40;;
68825;SDS011;55841;53.392;10.086;2023-02-10T12:51:49;16.45;;;5.13;;
68825;SDS011;55841;53.392;10.086;2023-02-10T12:54:31;21.90;;;6.05;;
68825;SDS011;55841;53.392;10.086;2023-02-10T12:57:47;21.63;;;6.20;;
68825;SDS011;55841;53.392;10.086;2023-02-10T13:00:00;18.00;;;6.20;;
68825;SDS011;55841;53.392;10.086;2023-02-10T13:02:44;21.83;;;6.70;;
68825;SDS011;55841;53.392;10.086;2023-02-10T13:05:16;17.90;;;5.82;;
68825;SDS011;55841;53.392;10.086;2023-02-10T13:07:49;20.02;;;7.78;;
68825;SDS011;55841;53.392;10.086;2023-02-10T13:10:26;14.90;;;6.07;;
68825;SDS011;55841;53.392;10.086;2023-02-10T13:12:55;17.42;;;5.30;;
68825;SDS011;55841;53.392;10.086;2023-02-10T13:15:30;20.60;;;7.00;;
68825;SDS011;55841;53.392;10.086;2023-02-10T13:18:17;18.75;;;5.80;;
68825;SDS011;55841;53.392;10.086;2023-02-10T13:28:59;17.20;;;5.72;;
68825;SDS011;55841;53.392;10.086;2023-02-10T13:36:55;16.10;;;5.00;;
68825;SDS011;55841;53.392;10.086;2023-02-10T13:39:25;20.10;;;5.72;;
68825;SDS011;55841;53.392;10.086;2023-02-10T13:42:03;15.57;;;5.45;;
68825;SDS011;55841;53.392;10.086;2023-02-10T13:44:33;19.88;;;6.38;;
68825;SDS011;55841;53.392;10.086;2023-02-10T13:50:17;18.33;;;6.55;;
68825;SDS011;55841;53.392;10.086;2023-02-10T13:52:30;20.02;;;6.45;;
68825;SDS011;55841;53.392;10.086;2023-02-10T13:54:58;19.35;;;6.57;;
68825;SDS011;55841;53.392;10.086;2023-02-10T13:57:29;22.70;;;6.13;;
68825;SDS011;55841;53.392;10.086;2023-02-10T14:02:43;19.48;;;6.63;;
68825;SDS011;55841;53.392;10.086;2023-02-10T14:07:53;24.92;;;7.00;;
68825;SDS011;55841;53.392;10.086;2023-02-10T14:12:57;18.98;;;6.47;;
68825;SDS011;55841;53.392;10.086;2023-02-10T14:15:32;21.83;;;6.50;;
68825;SDS011;55841;53.392;10.086;2023-02-10T14:18:03;18.55;;;6.93;;
68825;SDS011;55841;53.392;10.086;2023-02-10T14:20:35;23.70;;;6.57;;
68825;SDS011;55841;53.392;10.086;2023-02-10T14:23:04;16.45;;;6.60;;
68825;SDS011;55841;53.392;10.086;2023-02-10T14:25:33;22.98;;;7.28;;
68825;SDS011;55841;53.392;10.086;2023-02-10T14:28:02;20.48;;;6.80;;
68825;SDS011;55841;53.392;10.086;2023-02-10T14:33:03;18.52;;;6.35;;
68825;SDS011;55841;53.392;10.086;2023-02-10T14:35:30;18.10;;;6.22;;
68825;SDS011;55841;53.392;10.086;2023-02-10T14:37:57;18.95;;;6.40;;
68825;SDS011;55841;53.392;10.086;2023-02-10T14:40:24;19.52;;;7.20;;
68825;SDS011;55841;53.392;10.086;2023-02-10T14:42:51;24.58;;;6.68;;
68825;SDS011;55841;53.392;10.086;2023-02-10T14:45:23;16.75;;;5.72;;
68825;SDS011;55841;53.392;10.086;2023-02-10T14:47:51;20.42;;;6.53;;
68825;SDS011;55841;53.392;10.086;2023-02-10T14:52:51;19.98;;;6.55;;
68825;SDS011;55841;53.392;10.086;2023-02-10T14:57:56;19.67;;;7.20;;
68825;SDS011;55841;53.392;10.086;2023-02-10T15:00:27;26.52;;;6.82;;
68825;SDS011;55841;53.392;10.086;2023-02-10T15:02:55;18.13;;;7.20;;
68825;SDS011;55841;53.392;10.086;2023-02-10T15:05:23;19.75;;;7.90;;
68825;SDS011;55841;53.392;10.086;2023-02-10T15:07:52;21.05;;;6.90;;
68825;SDS011;55841;53.392;10.086;2023-02-10T15:11:04;21.73;;;7.05;;
68825;SDS011;55841;53.392;10.086;2023-02-10T15:13:12;19.48;;;7.30;;
68825;SDS011;55841;53.392;10.086;2023-02-10T15:15:42;18.65;;;6.22;;
68825;SDS011;55841;53.392;10.086;2023-02-10T15:18:12;21.52;;;6.80;;
68825;SDS011;55841;53.392;10.086;2023-02-10T15:21:05;23.42;;;8.05;;
68825;SDS011;55841;53.392;10.086;2023-02-10T15:23:50;22.55;;;9.05;;
68825;SDS011;55841;53.392;10.086;2023-02-10T15:26:17;25.13;;;7.32;;
68825;SDS011;55841;53.392;10.086;2023-02-10T15:28:44;19.90;;;7.03;;
68825;SDS011;55841;53.392;10.086;2023-02-10T15:33:54;22.45;;;8.27;;
68825;SDS011;55841;53.392;10.086;2023-02-10T15:44:00;29.20;;;10.35;;
68825;SDS011;55841;53.392;10.086;2023-02-10T15:46:28;31.58;;;10.82;;
68825;SDS011;55841;53.392;10.086;2023-02-10T15:49:05;25.95;;;10.63;;
68825;SDS011;55841;53.392;10.086;2023-02-10T15:51:37;28.08;;;10.30;;
68825;SDS011;55841;53.392;10.086;2023-02-10T15:54:10;31.02;;;10.40;;
68825;SDS011;55841;53.392;10.086;2023-02-10T15:56:38;24.80;;;8.93;;
68825;SDS011;55841;53.392;10.086;2023-02-10T15:59:08;25.13;;;8.55;;
68825;SDS011;55841;53.392;10.086;2023-02-10T16:01:39;23.55;;;9.98;;
68825;SDS011;55841;53.392;10.086;2023-02-10T16:04:04;28.60;;;11.02;;
68825;SDS011;55841;53.392;10.086;2023-02-10T16:06:30;24.27;;;9.70;;
68825;SDS011;55841;53.392;10.086;2023-02-10T16:08:55;25.77;;;10.52;;
68825;SDS011;55841;53.392;10.086;2023-02-10T16:11:21;22.83;;;8.52;;
68825;SDS011;55841;53.392;10.086;2023-02-10T16:13:46;28.98;;;11.45;;
68825;SDS011;55841;53.392;10.086;2023-02-10T16:16:13;29.98;;;11.10;;
68825;SDS011;55841;53.392;10.086;2023-02-10T16:18:40;28.17;;;10.77;;
68825;SDS011;55841;53.392;10.086;2023-02-10T16:21:07;31.48;;;11.07;;
68825;SDS011;55841;53.392;10.086;2023-02-10T16:23:36;28.70;;;12.52;;